createdAt,value
2022-09-11T00:00:09.274Z,13.62
2022-09-11T00:02:36.108Z,13.63
2022-09-11T00:05:03.098Z,13.63
2022-09-11T00:07:31.068Z,13.64
2022-09-11T00:09:57.865Z,13.65
2022-09-11T00:12:24.832Z,13.66
2022-09-11T00:14:52.995Z,13.64
2022-09-11T00:17:19.801Z,13.69
2022-09-11T00:19:46.637Z,13.71
2022-09-11T00:22:13.489Z,13.72
2022-09-11T00:24:41.348Z,13.71
2022-09-11T00:27:08.100Z,13.77
2022-09-11T00:32:03.140Z,14.17
2022-09-11T00:34:29.995Z,14.09
2022-09-11T00:36:58.161Z,13.93
2022-09-11T00:39:24.999Z,13.85
2022-09-11T00:41:51.860Z,13.79
2022-09-11T00:44:55.800Z,13.75
2022-09-11T00:47:24.370Z,13.73
2022-09-11T00:49:54.353Z,13.68
2022-09-11T00:52:25.320Z,13.64
2022-09-11T00:54:56.797Z,13.71
2022-09-11T00:57:27.895Z,13.67
2022-09-11T00:59:58.739Z,13.63
2022-09-11T01:02:30.145Z,13.65
2022-09-11T01:04:57.932Z,13.68
2022-09-11T01:07:26.815Z,13.66
2022-09-11T01:09:55.133Z,13.68
2022-09-11T01:12:27.531Z,13.69
2022-09-11T01:15:01.510Z,13.72
2022-09-11T01:17:36.062Z,13.73
2022-09-11T01:20:26.585Z,13.72
2022-09-11T01:23:14.000Z,13.72
2022-09-11T01:26:01.624Z,13.72
2022-09-11T01:28:35.411Z,13.68
2022-09-11T01:31:06.343Z,13.67
2022-09-11T01:33:43.104Z,13.69
2022-09-11T01:36:14.097Z,13.68
2022-09-11T01:38:47.083Z,13.65
2022-09-11T01:41:18.454Z,13.60
2022-09-11T01:43:53.190Z,13.54
2022-09-11T01:46:23.420Z,13.52
2022-09-11T01:48:55.450Z,13.51
2022-09-11T01:51:28.334Z,13.49
2022-09-11T01:53:59.337Z,13.45
2022-09-11T01:56:32.555Z,13.47
2022-09-11T01:59:06.690Z,13.43
2022-09-11T02:01:37.079Z,13.35
2022-09-11T02:04:10.685Z,13.39
2022-09-11T02:06:42.585Z,13.34
2022-09-11T02:09:14.723Z,13.32
2022-09-11T02:11:45.799Z,13.32
2022-09-11T02:14:21.327Z,13.32
2022-09-11T02:16:51.195Z,13.30
2022-09-11T02:19:19.886Z,13.32
2022-09-11T02:21:48.002Z,13.30
2022-09-11T02:24:15.869Z,13.26
2022-09-11T02:26:46.709Z,13.31
2022-09-11T02:29:15.616Z,13.26
2022-09-11T02:31:43.819Z,13.26
2022-09-11T02:34:13.148Z,13.19
2022-09-11T02:37:03.300Z,13.18
2022-09-11T02:40:04.889Z,13.16
2022-09-11T02:42:48.131Z,13.14
2022-09-11T02:45:31.646Z,13.14
2022-09-11T02:48:15.127Z,13.21
2022-09-11T02:50:50.612Z,13.16
2022-09-11T02:53:25.474Z,13.20
2022-09-11T02:56:01.561Z,13.18
2022-09-11T02:58:34.568Z,13.23
2022-09-11T03:01:03.731Z,13.18
2022-09-11T03:03:38.657Z,13.15
2022-09-11T03:06:06.459Z,13.12
2022-09-11T03:08:33.221Z,13.12
2022-09-11T03:11:00.349Z,13.05
2022-09-11T03:13:27.165Z,13.06
2022-09-11T03:15:54.482Z,13.03
2022-09-11T03:18:23.288Z,13.02
2022-09-11T03:20:51.938Z,13.08
2022-09-11T03:23:18.756Z,13.01
2022-09-11T03:25:45.607Z,13.02
2022-09-11T03:28:12.416Z,13.00
2022-09-11T03:30:41.497Z,12.98
2022-09-11T03:33:08.633Z,12.96
2022-09-11T03:35:36.979Z,12.96
2022-09-11T03:38:03.813Z,12.93
2022-09-11T03:40:30.655Z,12.91
2022-09-11T03:42:57.495Z,12.92
2022-09-11T03:45:24.457Z,12.90
2022-09-11T03:47:51.434Z,12.91
2022-09-11T03:50:18.351Z,12.94
2022-09-11T03:52:46.744Z,12.99
2022-09-11T03:55:13.548Z,13.00
2022-09-11T03:57:40.615Z,13.00
2022-09-11T04:00:09.101Z,12.99
2022-09-11T04:02:36.137Z,13.00
2022-09-11T04:05:04.586Z,13.00
2022-09-11T04:07:31.724Z,12.97
2022-09-11T04:09:59.963Z,12.95
2022-09-11T04:12:27.068Z,12.94
2022-09-11T04:14:53.954Z,12.88
2022-09-11T04:17:20.785Z,12.85
2022-09-11T04:19:48.253Z,12.78
2022-09-11T04:22:15.248Z,12.74
2022-09-11T04:24:42.172Z,12.67
2022-09-11T04:27:12.930Z,12.57
2022-09-11T04:29:39.800Z,12.52
2022-09-11T04:32:06.682Z,12.44
2022-09-11T04:34:33.529Z,12.42
2022-09-11T04:37:00.321Z,12.41
2022-09-11T04:39:27.221Z,12.36
2022-09-11T04:41:55.411Z,12.38
2022-09-11T04:44:26.324Z,12.46
2022-09-11T04:46:53.159Z,12.51
2022-09-11T04:49:19.954Z,12.56
2022-09-11T04:51:46.826Z,12.58
2022-09-11T04:54:15.865Z,12.63
2022-09-11T04:56:42.832Z,12.66
2022-09-11T04:59:13.670Z,12.68
2022-09-11T05:01:43.900Z,12.70
2022-09-11T05:04:11.949Z,12.77
2022-09-11T05:06:39.013Z,12.81
2022-09-11T05:09:09.733Z,12.86
2022-09-11T05:11:38.332Z,12.87
2022-09-11T05:14:06.057Z,12.92
2022-09-11T05:16:37.234Z,12.96
2022-09-11T05:19:06.052Z,12.97
2022-09-11T05:21:33.479Z,13.03
2022-09-11T05:24:01.845Z,13.08
2022-09-11T05:26:31.433Z,13.13
2022-09-11T05:28:59.924Z,13.16
2022-09-11T05:31:28.961Z,13.26
2022-09-11T05:33:56.629Z,13.26
2022-09-11T05:36:26.345Z,13.32
2022-09-11T05:38:53.360Z,13.34
2022-09-11T05:41:20.798Z,13.36
2022-09-11T05:43:47.773Z,13.45
2022-09-11T05:46:16.964Z,13.44
2022-09-11T05:48:44.520Z,13.46
2022-09-11T05:51:13.831Z,13.51
2022-09-11T05:53:42.513Z,13.56
2022-09-11T05:56:12.442Z,13.61
2022-09-11T05:58:39.348Z,13.64
2022-09-11T06:01:08.458Z,13.71
2022-09-11T06:03:36.442Z,13.72
2022-09-11T06:06:04.846Z,13.78
2022-09-11T06:08:33.584Z,13.79
2022-09-11T06:11:03.561Z,13.84
2022-09-11T06:13:31.805Z,13.89
2022-09-11T06:15:58.772Z,13.95
2022-09-11T06:18:26.484Z,13.98
2022-09-11T06:20:58.150Z,14.06
2022-09-11T06:23:26.082Z,14.09
2022-09-11T06:25:54.277Z,14.19
2022-09-11T06:28:23.959Z,14.19
2022-09-11T06:30:51.477Z,14.20
2022-09-11T06:33:20.713Z,14.24
2022-09-11T06:35:57.750Z,14.25
2022-09-11T06:38:24.898Z,14.28
2022-09-11T06:40:52.136Z,14.30
2022-09-11T06:43:19.760Z,14.31
2022-09-11T06:45:51.011Z,14.30
2022-09-11T06:48:19.251Z,14.38
2022-09-11T06:50:46.333Z,14.45
2022-09-11T06:53:16.988Z,14.52
2022-09-11T06:55:43.838Z,14.54
2022-09-11T06:58:11.060Z,14.64
2022-09-11T07:00:38.605Z,14.72
2022-09-11T07:03:07.376Z,14.75
2022-09-11T07:05:34.338Z,14.75
2022-09-11T07:08:01.869Z,15.01
2022-09-11T07:10:29.126Z,15.20
2022-09-11T07:12:55.970Z,15.14
2022-09-11T07:15:23.589Z,15.13
2022-09-11T07:17:50.548Z,15.21
2022-09-11T07:20:19.224Z,15.31
2022-09-11T07:22:46.899Z,15.50
2022-09-11T07:25:15.604Z,15.62
2022-09-11T07:27:43.125Z,15.54
2022-09-11T07:30:11.732Z,15.48
2022-09-11T07:32:38.876Z,15.47
2022-09-11T07:35:07.274Z,15.45
2022-09-11T07:37:35.694Z,15.30
2022-09-11T07:40:03.815Z,15.31
2022-09-11T07:42:30.950Z,15.31
2022-09-11T07:44:57.897Z,15.39
2022-09-11T07:47:25.108Z,15.46
2022-09-11T07:49:52.072Z,15.57
2022-09-11T07:52:20.667Z,15.54
2022-09-11T07:54:51.169Z,15.43
2022-09-11T07:57:19.470Z,15.34
2022-09-11T07:59:46.855Z,15.40
2022-09-11T08:02:14.275Z,15.40
2022-09-11T08:04:41.705Z,15.52
2022-09-11T08:07:08.915Z,15.50
2022-09-11T08:09:37.501Z,15.68
2022-09-11T08:12:07.838Z,15.78
2022-09-11T08:14:37.508Z,15.84
2022-09-11T08:17:04.953Z,-147.88
2022-09-11T08:19:32.878Z,-147.88
2022-09-11T08:22:00.551Z,-147.88
2022-09-11T08:24:27.887Z,-147.88
2022-09-11T08:26:55.449Z,-147.88
2022-09-11T08:29:24.892Z,-147.88
2022-09-11T08:31:51.857Z,-147.88
2022-09-11T08:34:22.565Z,-147.88
2022-09-11T08:36:52.678Z,-147.88
2022-09-11T08:39:19.570Z,-147.88
2022-09-11T08:41:50.038Z,-147.88
2022-09-11T08:44:21.684Z,-147.88
2022-09-11T08:46:55.321Z,-147.88
2022-09-11T08:49:26.330Z,-147.88
2022-09-11T08:51:57.967Z,-147.88
2022-09-11T08:54:29.124Z,-147.88
2022-09-11T08:57:10.722Z,-147.88
2022-09-11T08:59:55.548Z,-147.88
2022-09-11T09:02:42.735Z,-147.88
2022-09-11T09:05:20.692Z,-147.88
2022-09-11T09:08:03.757Z,-147.88
2022-09-11T09:10:45.152Z,-147.88
2022-09-11T09:13:29.637Z,-147.88
2022-09-11T09:16:05.865Z,-147.88
2022-09-11T09:18:40.235Z,-147.88
2022-09-11T09:21:15.841Z,-147.88
2022-09-11T09:23:49.690Z,-147.88
2022-09-11T09:26:20.381Z,-147.88
2022-09-11T09:28:50.685Z,-147.88
2022-09-11T09:31:21.931Z,-147.88
2022-09-11T09:33:55.036Z,-147.88
2022-09-11T09:36:31.497Z,-147.88
2022-09-11T09:38:59.650Z,-147.88
2022-09-11T09:41:56.903Z,-147.88
2022-09-11T09:44:38.064Z,-147.88
2022-09-11T09:47:11.166Z,-147.88
2022-09-11T09:49:40.389Z,-147.88
2022-09-11T09:52:18.248Z,-147.88
2022-09-11T09:54:54.146Z,-147.88
2022-09-11T09:57:24.358Z,-147.88
2022-09-11T09:59:56.680Z,-147.88
2022-09-11T10:02:39.249Z,-147.88
2022-09-11T10:05:18.160Z,-147.88
2022-09-11T10:07:49.989Z,-147.88
2022-09-11T10:10:32.000Z,-147.88
2022-09-11T10:13:17.998Z,-147.88
2022-09-11T10:15:49.498Z,-147.88
2022-09-11T10:18:24.990Z,-147.88
2022-09-11T10:20:54.813Z,-147.88
2022-09-11T10:23:23.532Z,-147.88
2022-09-11T10:25:51.496Z,-147.88
2022-09-11T10:28:23.458Z,-147.88
2022-09-11T10:31:00.355Z,-147.88
2022-09-11T10:33:30.789Z,-147.88
2022-09-11T10:36:00.696Z,-147.88
2022-09-11T10:38:31.376Z,-147.88
2022-09-11T10:41:08.499Z,-147.88
2022-09-11T10:43:42.799Z,-147.88
2022-09-11T10:46:28.954Z,-147.88
2022-09-11T10:48:57.570Z,-147.88
2022-09-11T10:51:28.204Z,-147.88
2022-09-11T10:54:04.244Z,-147.88
2022-09-11T10:56:32.802Z,-147.88
2022-09-11T10:59:05.609Z,-147.88
2022-09-11T11:01:33.440Z,-147.88
2022-09-11T11:04:00.524Z,-147.88
2022-09-11T11:06:42.588Z,-147.88
2022-09-11T11:09:27.732Z,-147.88
2022-09-11T11:12:10.994Z,-147.88
2022-09-11T11:14:56.907Z,-147.88
2022-09-11T11:17:36.215Z,-147.88
2022-09-11T11:20:31.534Z,-147.88
2022-09-11T11:23:34.022Z,-147.88
2022-09-11T11:26:24.902Z,-147.88
2022-09-11T11:29:22.745Z,-147.88
2022-09-11T11:32:05.150Z,-147.88
2022-09-11T11:34:47.066Z,-147.88
2022-09-11T11:37:20.026Z,-147.88
2022-09-11T11:39:57.464Z,-147.88
2022-09-11T11:42:28.010Z,-147.88
2022-09-11T11:44:58.695Z,-147.88
2022-09-11T11:47:30.867Z,-147.88
2022-09-11T11:50:05.995Z,-147.88
2022-09-11T11:52:43.317Z,-147.88
2022-09-11T11:55:18.496Z,-147.88
2022-09-11T11:58:06.379Z,-147.88
2022-09-11T12:00:40.512Z,-147.88
2022-09-11T12:03:15.789Z,-147.88
2022-09-11T12:05:42.923Z,-147.88
2022-09-11T12:08:14.258Z,-147.88
2022-09-11T12:10:48.402Z,-147.88
2022-09-11T12:13:20.641Z,-147.88
2022-09-11T12:16:13.253Z,-147.88
2022-09-11T12:18:42.372Z,-147.88
2022-09-11T12:21:40.700Z,-147.88
2022-09-11T12:24:21.496Z,-147.88
2022-09-11T12:27:28.826Z,-147.88
2022-09-11T12:29:57.555Z,-147.88
2022-09-11T12:32:40.733Z,-147.88
2022-09-11T12:35:20.567Z,-147.88
2022-09-11T12:37:56.181Z,-147.88
2022-09-11T12:40:32.539Z,-147.88
2022-09-11T12:43:31.538Z,-147.88
2022-09-11T12:45:59.391Z,-147.88
2022-09-11T12:48:38.516Z,-147.88
2022-09-11T12:51:16.902Z,-147.88
2022-09-11T12:53:50.993Z,-147.88
2022-09-11T12:56:22.300Z,-147.88
2022-09-11T12:58:59.186Z,-147.88
2022-09-11T13:01:31.219Z,-147.88
2022-09-11T13:04:03.352Z,-147.88
2022-09-11T13:06:41.007Z,-147.88
2022-09-11T13:09:20.032Z,-147.88
2022-09-11T13:11:50.018Z,-147.88
2022-09-11T13:14:47.340Z,-147.88
2022-09-11T13:17:18.581Z,-147.88
2022-09-11T13:19:45.445Z,-147.88
2022-09-11T13:22:24.781Z,-147.88
2022-09-11T13:24:52.443Z,-147.88
2022-09-11T13:27:25.987Z,15.84
2022-09-11T13:29:55.687Z,19.39
2022-09-11T13:32:23.175Z,19.56
2022-09-11T13:34:59.647Z,19.71
2022-09-11T13:37:36.172Z,19.73
2022-09-11T13:40:04.980Z,19.70
2022-09-11T13:42:33.187Z,19.54
2022-09-11T13:45:03.570Z,19.51
2022-09-11T13:47:31.692Z,19.38
2022-09-11T13:50:01.866Z,19.44
2022-09-11T13:52:32.271Z,19.28
2022-09-11T13:55:03.668Z,19.46
2022-09-11T13:57:32.093Z,19.28
2022-09-11T14:00:01.147Z,19.20
2022-09-11T14:02:44.424Z,19.25
2022-09-11T14:05:23.636Z,19.15
2022-09-11T14:07:57.174Z,19.12
2022-09-11T14:10:26.916Z,19.08
2022-09-11T14:13:03.224Z,19.08
2022-09-11T14:15:38.241Z,-147.88
2022-09-11T14:18:11.958Z,-147.88
2022-09-11T14:20:43.672Z,-147.88
2022-09-11T14:23:17.565Z,-147.88
2022-09-11T14:26:06.562Z,-147.88
2022-09-11T14:28:36.606Z,19.05
2022-09-11T14:31:09.649Z,19.11
2022-09-11T14:33:36.984Z,19.12
2022-09-11T14:36:07.904Z,19.12
2022-09-11T14:38:35.385Z,18.89
2022-09-11T14:41:07.122Z,18.94
2022-09-11T14:43:37.612Z,18.80
2022-09-11T14:46:05.956Z,18.80
2022-09-11T14:48:35.832Z,18.89
2022-09-11T14:51:09.916Z,19.24
2022-09-11T14:53:43.546Z,19.24
2022-09-11T14:56:11.016Z,19.61
2022-09-11T14:58:38.682Z,20.38
2022-09-11T15:01:06.092Z,-147.88
2022-09-11T15:03:33.172Z,21.65
2022-09-11T15:06:03.825Z,-147.88
2022-09-11T15:08:33.091Z,-147.88
2022-09-11T15:11:01.560Z,-147.88
2022-09-11T15:13:28.713Z,-147.88
2022-09-11T15:15:56.961Z,-147.88
2022-09-11T15:18:24.451Z,-147.88
2022-09-11T15:23:37.904Z,-147.88
2022-09-11T15:26:08.839Z,-147.88
2022-09-11T15:28:36.892Z,-147.88
2022-09-11T15:31:04.470Z,-147.88
2022-09-11T15:33:33.325Z,-147.88
2022-09-11T15:36:02.391Z,-147.88
2022-09-11T15:38:29.851Z,-147.88
2022-09-11T15:40:58.444Z,-147.88
2022-09-11T15:43:26.627Z,-147.88
2022-09-11T15:45:54.219Z,-147.88
2022-09-11T15:48:21.536Z,-147.88
2022-09-11T15:50:59.955Z,-147.88
2022-09-11T15:53:28.325Z,-147.88
2022-09-11T15:56:04.585Z,-147.88
2022-09-11T15:58:32.815Z,-147.88
2022-09-11T16:01:00.275Z,-147.88
2022-09-11T16:03:27.218Z,21.82
2022-09-11T16:05:54.308Z,-147.88
2022-09-11T16:08:23.099Z,-147.88
2022-09-11T16:10:50.625Z,-147.88
2022-09-11T16:13:19.691Z,-147.88
2022-09-11T16:15:48.648Z,-147.88
2022-09-11T16:18:19.428Z,-147.88
2022-09-11T16:20:55.882Z,-147.88
2022-09-11T16:23:23.012Z,-147.88
2022-09-11T16:25:50.857Z,-147.88
2022-09-11T16:28:19.400Z,-147.88
2022-09-11T16:30:50.651Z,-147.88
2022-09-11T16:33:19.268Z,-147.88
2022-09-11T16:35:57.572Z,-147.88
2022-09-11T16:38:24.937Z,-147.88
2022-09-11T16:41:00.769Z,-147.88
2022-09-11T16:43:30.170Z,-147.88
2022-09-11T16:45:57.763Z,-147.88
2022-09-11T16:48:25.797Z,-147.88
2022-09-11T16:50:53.505Z,-147.88
2022-09-11T16:53:21.179Z,-147.88
2022-09-11T16:55:48.826Z,-147.88
2022-09-11T16:58:16.486Z,-147.88
2022-09-11T17:00:46.512Z,-147.88
2022-09-11T17:03:14.618Z,-147.88
2022-09-11T17:05:48.293Z,-147.88
2022-09-11T17:08:15.493Z,-147.88
2022-09-11T17:10:44.356Z,-147.88
2022-09-11T17:13:12.468Z,-147.88
2022-09-11T17:15:40.639Z,21.82
2022-09-11T17:18:12.733Z,17.73
2022-09-11T17:20:40.066Z,17.71
2022-09-11T17:23:07.428Z,17.63
2022-09-11T17:25:38.661Z,17.54
2022-09-11T17:28:06.415Z,17.44
2022-09-11T17:30:37.171Z,17.44
2022-09-11T17:33:04.353Z,17.16
2022-09-11T17:35:34.263Z,17.04
2022-09-11T17:38:04.979Z,17.02
2022-09-11T17:40:33.005Z,16.95
2022-09-11T17:43:02.627Z,16.75
2022-09-11T17:45:31.763Z,16.68
2022-09-11T17:48:02.485Z,16.63
2022-09-11T17:50:30.821Z,16.55
2022-09-11T17:53:00.038Z,16.44
2022-09-11T17:55:28.985Z,16.37
2022-09-11T17:57:57.671Z,16.29
2022-09-11T18:00:25.887Z,16.11
2022-09-11T18:02:54.133Z,16.02
2022-09-11T18:05:23.753Z,15.94
2022-09-11T18:07:51.624Z,15.89
2022-09-11T18:10:20.872Z,15.75
2022-09-11T18:12:48.864Z,15.69
2022-09-11T18:15:16.665Z,15.74
2022-09-11T18:17:48.327Z,15.75
2022-09-11T18:20:17.906Z,-147.88
2022-09-11T18:22:45.605Z,-147.88
2022-09-11T18:25:13.414Z,-147.88
2022-09-11T18:27:43.351Z,-147.88
2022-09-11T18:30:12.925Z,-147.88
2022-09-11T18:32:40.513Z,-147.88
2022-09-11T18:35:10.150Z,-147.88
2022-09-11T18:37:37.707Z,-147.88
2022-09-11T18:40:06.482Z,-147.88
2022-09-11T18:42:34.449Z,-147.88
2022-09-11T18:45:03.429Z,-147.88
2022-09-11T18:47:30.941Z,-147.88
2022-09-11T18:49:59.707Z,-147.88
2022-09-11T18:52:29.671Z,-147.88
2022-09-11T18:55:00.067Z,-147.88
2022-09-11T18:57:29.038Z,-147.88
2022-09-11T18:59:57.201Z,-147.88
2022-09-11T19:02:26.763Z,-147.88
2022-09-11T19:04:54.763Z,-147.88
2022-09-11T19:07:22.845Z,-147.88
2022-09-11T19:09:50.687Z,-147.88
2022-09-11T19:12:18.191Z,-147.88
2022-09-11T19:14:45.539Z,-147.88
2022-09-11T19:17:13.601Z,-147.88
2022-09-11T19:19:42.823Z,-147.88
2022-09-11T19:22:10.581Z,-147.88
2022-09-11T19:24:38.540Z,-147.88
2022-09-11T19:27:05.768Z,-147.88
2022-09-11T19:29:32.714Z,-147.88
2022-09-11T19:32:01.065Z,-147.88
2022-09-11T19:34:28.309Z,-147.88
2022-09-11T19:36:58.082Z,-147.88
2022-09-11T19:39:27.571Z,-147.88
2022-09-11T19:41:56.068Z,-147.88
2022-09-11T19:44:25.386Z,-147.88
2022-09-11T19:46:56.488Z,-147.88
2022-09-11T19:49:25.768Z,-147.88
2022-09-11T19:51:54.953Z,-147.88
2022-09-11T19:54:24.796Z,-147.88
2022-09-11T19:56:52.724Z,-147.88
2022-09-11T19:59:20.171Z,-147.88
2022-09-11T20:01:47.424Z,-147.88
2022-09-11T20:04:19.003Z,-147.88
2022-09-11T20:12:02.558Z,-147.88
2022-09-11T20:14:30.345Z,-147.88
2022-09-11T20:16:57.883Z,-147.88
2022-09-11T20:19:26.306Z,-147.88
2022-09-11T20:21:53.502Z,-147.88
2022-09-11T20:24:22.743Z,-147.88
2022-09-11T20:26:54.441Z,-147.88
2022-09-11T20:29:25.858Z,-147.88
2022-09-11T20:31:56.199Z,-147.88
2022-09-11T20:34:28.198Z,-147.88
2022-09-11T20:36:58.320Z,-147.88
2022-09-11T20:39:26.815Z,12.75
2022-09-11T20:41:54.470Z,12.67
2022-09-11T20:44:25.193Z,12.67
2022-09-11T20:46:52.014Z,12.60
2022-09-11T20:49:18.886Z,12.57
2022-09-11T20:51:45.918Z,12.57
2022-09-11T20:54:12.968Z,12.56
2022-09-11T20:56:39.822Z,12.59
2022-09-11T20:59:07.524Z,12.60
2022-09-11T21:01:36.134Z,12.61
2022-09-11T21:04:04.575Z,12.62
2022-09-11T21:06:34.082Z,12.53
2022-09-11T21:09:03.949Z,12.52
2022-09-11T21:11:31.168Z,12.50
2022-09-11T21:13:59.045Z,12.44
2022-09-11T21:16:26.950Z,12.37
2022-09-11T21:18:57.971Z,12.31
2022-09-11T21:21:26.080Z,12.28
2022-09-11T21:23:55.062Z,12.21
2022-09-11T21:26:22.163Z,12.12
2022-09-11T21:28:49.938Z,12.06
2022-09-11T21:31:17.499Z,12.05
2022-09-11T21:33:45.113Z,12.07
2022-09-11T21:36:14.506Z,12.04
2022-09-11T21:38:41.634Z,12.03
2022-09-11T21:41:11.220Z,12.01
2022-09-11T21:43:40.075Z,-147.88
2022-09-11T21:46:08.536Z,11.94
2022-09-11T21:48:37.151Z,11.89
2022-09-11T21:51:10.300Z,11.84
2022-09-11T21:53:40.039Z,11.78
2022-09-11T21:56:15.897Z,11.74
2022-09-11T21:58:43.271Z,11.74
2022-09-11T22:01:10.288Z,11.69
2022-09-11T22:03:37.348Z,11.62
2022-09-11T22:06:06.578Z,11.55
2022-09-11T22:08:33.599Z,11.52
2022-09-11T22:11:03.725Z,11.54
2022-09-11T22:13:31.493Z,11.53
2022-09-11T22:15:59.669Z,11.51
2022-09-11T22:18:26.459Z,11.47
2022-09-11T22:20:53.347Z,11.44
2022-09-11T22:23:23.513Z,11.39
2022-09-11T22:25:58.823Z,11.35
2022-09-11T22:28:27.165Z,11.30
2022-09-11T22:30:54.595Z,11.29
2022-09-11T22:33:22.049Z,11.27
2022-09-11T22:35:49.597Z,11.79
2022-09-11T22:38:16.646Z,11.93
2022-09-11T22:40:43.643Z,11.65
2022-09-11T22:43:10.583Z,11.53
2022-09-11T22:45:39.079Z,11.46
2022-09-11T22:48:05.922Z,11.38
2022-09-11T22:50:33.603Z,11.19
2022-09-11T22:53:00.463Z,11.24
2022-09-11T22:55:27.704Z,11.13
2022-09-11T22:57:55.180Z,11.11
2022-09-11T23:00:22.336Z,10.98
2022-09-11T23:02:50.559Z,10.98
2022-09-11T23:05:36.229Z,10.92
2022-09-11T23:08:03.539Z,10.90
2022-09-11T23:10:30.549Z,10.92
2022-09-11T23:12:57.381Z,10.89
2022-09-11T23:15:24.314Z,10.84
2022-09-11T23:17:52.569Z,10.79
2022-09-11T23:20:19.467Z,10.72
2022-09-11T23:22:46.319Z,10.74
2022-09-11T23:25:13.876Z,10.67
2022-09-11T23:27:40.770Z,10.71
2022-09-11T23:30:08.680Z,10.67
2022-09-11T23:32:38.742Z,10.65
2022-09-11T23:35:10.604Z,10.58
2022-09-11T23:37:38.673Z,10.50
2022-09-11T23:40:08.203Z,10.51
2022-09-11T23:42:35.047Z,10.55
2022-09-11T23:45:01.834Z,10.49
2022-09-11T23:47:28.675Z,10.50
2022-09-11T23:49:55.511Z,10.46
2022-09-11T23:52:23.954Z,10.43
2022-09-11T23:54:51.021Z,10.40
2022-09-11T23:57:17.977Z,10.39
2022-09-11T23:59:44.898Z,10.37
